sensor_id;sensor_type;location;lat;lon;timestamp;pressure;altitude;pressure_sealevel;temperature;humidity
63190;BME280;49286;44.460;26.114;2022-10-16T00:00:44;101421.09;;;6.89;95.39
63190;BME280;49286;44.460;26.114;2022-10-16T00:03:11;101397.84;;;6.68;96.27
63190;BME280;49286;44.460;26.114;2022-10-16T00:05:42;101542.22;;;7.51;95.96
63190;BME280;49286;44.460;26.114;2022-10-16T00:08:09;101531.31;;;7.36;97.03
63190;BME280;49286;44.460;26.114;2022-10-16T00:10:35;101536.41;;;7.31;97.65
63190;BME280;49286;44.460;26.114;2022-10-16T00:13:01;101522.16;;;7.22;97.60
63190;BME280;49286;44.460;26.114;2022-10-16T00:15:26;101515.78;;;7.12;97.93
63190;BME280;49286;44.460;26.114;2022-10-16T00:17:52;101453.56;;;6.71;98.28
63190;BME280;49286;44.460;26.114;2022-10-16T00:20:17;101489.13;;;6.95;98.46
63190;BME280;49286;44.460;26.114;2022-10-16T00:22:43;101545.09;;;7.32;98.37
63190;BME280;49286;44.460;26.114;2022-10-16T00:25:08;101506.88;;;7.05;97.99
63190;BME280;49286;44.460;26.114;2022-10-16T00:27:34;101290.03;;;5.86;97.49
63190;BME280;49286;44.460;26.114;2022-10-16T00:30:00;101550.19;;;7.27;97.87
63190;BME280;49286;44.460;26.114;2022-10-16T00:32:25;101401.31;;;6.41;97.58
63190;BME280;49286;44.460;26.114;2022-10-16T00:34:51;101554.78;;;7.07;98.12
63190;BME280;49286;44.460;26.114;2022-10-16T00:37:16;101543.84;;;7.19;98.14
63190;BME280;49286;44.460;26.114;2022-10-16T00:39:41;101404.84;;;6.42;97.49
63190;BME280;49286;44.460;26.114;2022-10-16T00:42:14;101432.72;;;6.44;98.12
63190;BME280;49286;44.460;26.114;2022-10-16T00:44:46;101513.38;;;6.92;97.79
63190;BME280;49286;44.460;26.114;2022-10-16T00:47:17;101514.81;;;6.83;98.24
63190;BME280;49286;44.460;26.114;2022-10-16T00:49:45;101548.28;;;7.22;97.10
63190;BME280;49286;44.460;26.114;2022-10-16T00:52:11;101556.59;;;7.10;97.42
63190;BME280;49286;44.460;26.114;2022-10-16T00:54:38;101442.22;;;6.44;97.23
63190;BME280;49286;44.460;26.114;2022-10-16T00:57:05;101540.50;;;6.96;98.37
63190;BME280;49286;44.460;26.114;2022-10-16T00:59:40;101433.34;;;6.37;98.18
63190;BME280;49286;44.460;26.114;2022-10-16T01:02:08;101552.66;;;6.95;98.81
63190;BME280;49286;44.460;26.114;2022-10-16T01:04:38;101544.59;;;6.89;98.51
63190;BME280;49286;44.460;26.114;2022-10-16T01:15:22;101545.25;;;6.57;100.00
63190;BME280;49286;44.460;26.114;2022-10-16T01:17:58;101414.81;;;5.80;99.98
63190;BME280;49286;44.460;26.114;2022-10-16T01:20:33;101528.13;;;6.39;100.00
63190;BME280;49286;44.460;26.114;2022-10-16T01:29:06;101462.34;;;6.21;99.63
63190;BME280;49286;44.460;26.114;2022-10-16T01:31:36;101525.72;;;6.71;98.98
63190;BME280;49286;44.460;26.114;2022-10-16T01:34:06;101418.19;;;6.00;98.58
63190;BME280;49286;44.460;26.114;2022-10-16T01:36:39;101540.50;;;6.70;98.63
63190;BME280;49286;44.460;26.114;2022-10-16T01:39:09;101456.22;;;5.72;99.25
63190;BME280;49286;44.460;26.114;2022-10-16T01:41:45;101427.22;;;5.39;100.00
63190;BME280;49286;44.460;26.114;2022-10-16T01:44:22;101545.88;;;6.01;100.00
63190;BME280;49286;44.460;26.114;2022-10-16T01:46:50;101448.88;;;5.62;100.00
63190;BME280;49286;44.460;26.114;2022-10-16T01:49:17;101435.31;;;5.46;99.77
63190;BME280;49286;44.460;26.114;2022-10-16T01:51:46;101458.03;;;5.50;99.32
63190;BME280;49286;44.460;26.114;2022-10-16T01:54:13;101480.78;;;5.56;99.13
63190;BME280;49286;44.460;26.114;2022-10-16T01:56:40;101575.66;;;5.85;100.00
63190;BME280;49286;44.460;26.114;2022-10-16T01:59:11;101576.41;;;5.83;100.00
63190;BME280;49286;44.460;26.114;2022-10-16T02:01:40;101593.63;;;5.79;100.00
63190;BME280;49286;44.460;26.114;2022-10-16T02:06:48;101448.16;;;4.97;100.00
63190;BME280;49286;44.460;26.114;2022-10-16T02:09:13;101434.75;;;5.08;100.00
63190;BME280;49286;44.460;26.114;2022-10-16T02:11:42;101451.44;;;5.14;99.52
63190;BME280;49286;44.460;26.114;2022-10-16T02:14:08;101599.56;;;5.75;100.00
63190;BME280;49286;44.460;26.114;2022-10-16T02:16:39;101603.81;;;5.73;100.00
63190;BME280;49286;44.460;26.114;2022-10-16T02:19:06;101535.78;;;5.41;100.00
63190;BME280;49286;44.460;26.114;2022-10-16T02:24:57;101577.59;;;5.68;100.00
63190;BME280;49286;44.460;26.114;2022-10-16T02:27:25;101614.03;;;5.68;100.00
63190;BME280;49286;44.460;26.114;2022-10-16T02:30:19;101607.84;;;6.10;100.00
63190;BME280;49286;44.460;26.114;2022-10-16T02:32:42;101545.75;;;5.76;99.40
63190;BME280;49286;44.460;26.114;2022-10-16T02:35:10;101457.13;;;5.50;98.31
63190;BME280;49286;44.460;26.114;2022-10-16T02:37:36;101461.69;;;5.56;97.69
63190;BME280;49286;44.460;26.114;2022-10-16T02:40:04;101491.50;;;5.64;97.78
63190;BME280;49286;44.460;26.114;2022-10-16T02:42:35;101592.66;;;5.98;98.81
63190;BME280;49286;44.460;26.114;2022-10-16T02:45:02;101470.91;;;5.47;97.92
63190;BME280;49286;44.460;26.114;2022-10-16T02:47:27;101547.53;;;5.99;97.73
63190;BME280;49286;44.460;26.114;2022-10-16T02:49:53;101463.56;;;5.13;98.75
63190;BME280;49286;44.460;26.114;2022-10-16T02:52:18;101428.13;;;5.17;98.61
63190;BME280;49286;44.460;26.114;2022-10-16T02:54:44;101604.78;;;6.44;98.54
63190;BME280;49286;44.460;26.114;2022-10-16T02:57:16;101484.25;;;5.55;97.87
63190;BME280;49286;44.460;26.114;2022-10-16T02:59:42;101614.75;;;6.32;98.17
63190;BME280;49286;44.460;26.114;2022-10-16T03:02:07;101462.47;;;5.53;97.86
63190;BME280;49286;44.460;26.114;2022-10-16T03:04:33;101451.72;;;5.44;97.63
63190;BME280;49286;44.460;26.114;2022-10-16T03:06:58;101515.22;;;5.71;97.44
63190;BME280;49286;44.460;26.114;2022-10-16T03:09:23;101458.41;;;5.37;97.43
63190;BME280;49286;44.460;26.114;2022-10-16T03:11:49;101617.50;;;6.37;97.44
63190;BME280;49286;44.460;26.114;2022-10-16T03:14:15;101499.31;;;5.64;97.73
63190;BME280;49286;44.460;26.114;2022-10-16T03:16:40;101626.50;;;6.21;97.80
63190;BME280;49286;44.460;26.114;2022-10-16T03:19:05;101586.13;;;5.87;98.36
63190;BME280;49286;44.460;26.114;2022-10-16T03:21:31;101600.50;;;5.77;99.37
63190;BME280;49286;44.460;26.114;2022-10-16T03:23:56;101626.63;;;6.01;98.80
63190;BME280;49286;44.460;26.114;2022-10-16T03:26:22;101619.00;;;6.06;98.23
63190;BME280;49286;44.460;26.114;2022-10-16T03:28:47;101647.13;;;6.39;96.69
63190;BME280;49286;44.460;26.114;2022-10-16T03:31:13;101633.94;;;6.34;96.07
63190;BME280;49286;44.460;26.114;2022-10-16T03:33:38;101628.56;;;6.29;96.38
63190;BME280;49286;44.460;26.114;2022-10-16T03:36:04;101489.81;;;5.42;96.85
63190;BME280;49286;44.460;26.114;2022-10-16T03:38:29;101600.41;;;5.97;97.16
63190;BME280;49286;44.460;26.114;2022-10-16T03:40:55;101604.66;;;5.95;97.11
63190;BME280;49286;44.460;26.114;2022-10-16T03:43:20;101515.75;;;5.40;97.27
63190;BME280;49286;44.460;26.114;2022-10-16T03:45:46;101631.22;;;6.07;97.64
63190;BME280;49286;44.460;26.114;2022-10-16T03:48:11;101571.97;;;5.58;98.96
63190;BME280;49286;44.460;26.114;2022-10-16T03:50:37;101601.22;;;5.73;99.08
63190;BME280;49286;44.460;26.114;2022-10-16T03:53:02;101636.34;;;6.05;98.65
63190;BME280;49286;44.460;26.114;2022-10-16T03:55:28;101471.72;;;5.22;97.66
63190;BME280;49286;44.460;26.114;2022-10-16T03:57:53;101450.13;;;5.02;97.57
63190;BME280;49286;44.460;26.114;2022-10-16T04:00:19;101638.47;;;5.93;97.88
63190;BME280;49286;44.460;26.114;2022-10-16T04:02:44;101633.84;;;6.08;98.13
63190;BME280;49286;44.460;26.114;2022-10-16T04:05:10;101610.88;;;6.21;96.71
63190;BME280;49286;44.460;26.114;2022-10-16T04:07:36;101384.09;;;4.99;95.28
63190;BME280;49286;44.460;26.114;2022-10-16T04:10:01;101631.63;;;6.42;95.29
63190;BME280;49286;44.460;26.114;2022-10-16T04:12:27;101633.84;;;6.31;96.20
63190;BME280;49286;44.460;26.114;2022-10-16T04:14:52;101505.81;;;5.07;97.26
63190;BME280;49286;44.460;26.114;2022-10-16T04:17:18;101493.97;;;4.93;98.63
63190;BME280;49286;44.460;26.114;2022-10-16T04:19:43;101653.03;;;6.10;98.55
63190;BME280;49286;44.460;26.114;2022-10-16T04:22:09;101659.78;;;6.28;97.98
63190;BME280;49286;44.460;26.114;2022-10-16T04:24:34;101610.19;;;6.02;97.70
63190;BME280;49286;44.460;26.114;2022-10-16T04:27:00;101642.31;;;6.25;97.77
63190;BME280;49286;44.460;26.114;2022-10-16T04:29:25;101479.81;;;5.30;96.99
63190;BME280;49286;44.460;26.114;2022-10-16T04:31:51;101655.66;;;6.10;97.33
63190;BME280;49286;44.460;26.114;2022-10-16T04:34:16;101649.97;;;5.98;97.05
63190;BME280;49286;44.460;26.114;2022-10-16T04:36:42;101427.72;;;4.62;97.30
63190;BME280;49286;44.460;26.114;2022-10-16T04:39:07;101619.13;;;5.65;98.35
63190;BME280;49286;44.460;26.114;2022-10-16T04:41:33;101657.81;;;6.22;97.25
63190;BME280;49286;44.460;26.114;2022-10-16T04:43:58;101646.69;;;5.81;96.64
63190;BME280;49286;44.460;26.114;2022-10-16T04:46:23;101512.47;;;4.80;98.63
63190;BME280;49286;44.460;26.114;2022-10-16T04:48:49;101637.78;;;5.54;98.70
63190;BME280;49286;44.460;26.114;2022-10-16T04:51:14;101676.53;;;5.68;98.74
63190;BME280;49286;44.460;26.114;2022-10-16T04:53:40;101651.47;;;5.49;99.17
63190;BME280;49286;44.460;26.114;2022-10-16T04:56:05;101681.31;;;6.00;98.42
63190;BME280;49286;44.460;26.114;2022-10-16T04:58:31;101675.09;;;6.19;97.63
63190;BME280;49286;44.460;26.114;2022-10-16T05:00:57;101552.34;;;5.43;97.58
63190;BME280;49286;44.460;26.114;2022-10-16T05:03:22;101537.91;;;5.52;96.58
63190;BME280;49286;44.460;26.114;2022-10-16T05:05:48;101559.75;;;5.55;96.14
63190;BME280;49286;44.460;26.114;2022-10-16T05:08:14;101539.31;;;5.43;95.83
63190;BME280;49286;44.460;26.114;2022-10-16T05:10:44;101687.19;;;6.41;95.69
63190;BME280;49286;44.460;26.114;2022-10-16T05:13:10;101702.09;;;6.21;95.52
63190;BME280;49286;44.460;26.114;2022-10-16T05:15:35;101710.84;;;6.00;96.79
63190;BME280;49286;44.460;26.114;2022-10-16T05:18:01;101585.84;;;5.36;96.65
63190;BME280;49286;44.460;26.114;2022-10-16T05:20:27;101672.47;;;5.75;97.30
63190;BME280;49286;44.460;26.114;2022-10-16T05:22:52;101706.78;;;5.86;97.33
63190;BME280;49286;44.460;26.114;2022-10-16T05:25:18;101711.13;;;5.87;97.38
63190;BME280;49286;44.460;26.114;2022-10-16T05:27:47;101712.59;;;6.01;97.09
63190;BME280;49286;44.460;26.114;2022-10-16T05:30:12;101716.75;;;6.41;95.90
63190;BME280;49286;44.460;26.114;2022-10-16T05:32:38;101641.50;;;6.04;94.75
63190;BME280;49286;44.460;26.114;2022-10-16T05:35:04;101570.81;;;5.28;95.03
63190;BME280;49286;44.460;26.114;2022-10-16T05:37:29;101700.47;;;6.24;94.70
63190;BME280;49286;44.460;26.114;2022-10-16T05:39:55;101733.94;;;6.36;94.61
63190;BME280;49286;44.460;26.114;2022-10-16T05:42:20;101580.25;;;5.47;94.84
63190;BME280;49286;44.460;26.114;2022-10-16T05:44:59;101590.22;;;5.58;94.69
63190;BME280;49286;44.460;26.114;2022-10-16T05:47:24;101744.84;;;6.48;94.41
63190;BME280;49286;44.460;26.114;2022-10-16T05:49:50;101612.63;;;5.98;93.40
63190;BME280;49286;44.460;26.114;2022-10-16T05:52:15;101749.34;;;6.52;93.83
63190;BME280;49286;44.460;26.114;2022-10-16T05:54:41;101767.53;;;6.73;93.33
63190;BME280;49286;44.460;26.114;2022-10-16T05:57:06;101592.44;;;5.71;93.19
63190;BME280;49286;44.460;26.114;2022-10-16T05:59:32;101707.00;;;6.36;93.53
63190;BME280;49286;44.460;26.114;2022-10-16T06:01:57;101596.84;;;5.95;92.58
63190;BME280;49286;44.460;26.114;2022-10-16T06:04:23;101620.47;;;6.22;91.51
63190;BME280;49286;44.460;26.114;2022-10-16T06:06:48;101774.63;;;6.78;91.43
63190;BME280;49286;44.460;26.114;2022-10-16T06:09:14;101613.28;;;5.93;91.76
63190;BME280;49286;44.460;26.114;2022-10-16T06:11:39;101633.41;;;6.20;91.74
63190;BME280;49286;44.460;26.114;2022-10-16T06:14:05;101644.25;;;6.55;90.28
63190;BME280;49286;44.460;26.114;2022-10-16T06:16:37;101642.78;;;6.38;90.15
63190;BME280;49286;44.460;26.114;2022-10-16T06:19:03;101792.19;;;7.30;90.85
63190;BME280;49286;44.460;26.114;2022-10-16T06:21:31;101749.22;;;6.96;89.63
63190;BME280;49286;44.460;26.114;2022-10-16T06:23:58;101790.63;;;7.35;89.42
63190;BME280;49286;44.460;26.114;2022-10-16T06:26:26;101768.03;;;7.11;88.94
63190;BME280;49286;44.460;26.114;2022-10-16T06:28:54;101675.97;;;6.66;88.85
63190;BME280;49286;44.460;26.114;2022-10-16T06:31:20;101804.94;;;7.46;88.51
63190;BME280;49286;44.460;26.114;2022-10-16T06:33:50;101798.94;;;7.73;87.14
63190;BME280;49286;44.460;26.114;2022-10-16T06:36:17;101805.81;;;7.71;87.08
63190;BME280;49286;44.460;26.114;2022-10-16T06:38:43;101792.06;;;7.76;87.16
63190;BME280;49286;44.460;26.114;2022-10-16T06:41:14;101796.03;;;7.65;86.89
63190;BME280;49286;44.460;26.114;2022-10-16T06:43:40;101776.06;;;7.67;87.03
63190;BME280;49286;44.460;26.114;2022-10-16T06:46:07;101682.06;;;7.42;86.31
63190;BME280;49286;44.460;26.114;2022-10-16T06:48:34;101677.91;;;7.21;86.33
63190;BME280;49286;44.460;26.114;2022-10-16T06:53:47;101660.75;;;7.55;84.60
63190;BME280;49286;44.460;26.114;2022-10-16T06:56:18;101822.19;;;8.45;85.00
63190;BME280;49286;44.460;26.114;2022-10-16T06:58:44;101800.88;;;8.60;83.87
63190;BME280;49286;44.460;26.114;2022-10-16T07:01:12;101784.03;;;8.50;84.02
63190;BME280;49286;44.460;26.114;2022-10-16T07:03:39;101660.25;;;7.95;82.96
63190;BME280;49286;44.460;26.114;2022-10-16T07:06:06;101704.97;;;8.33;81.87
63190;BME280;49286;44.460;26.114;2022-10-16T07:08:33;101796.28;;;8.81;82.00
63190;BME280;49286;44.460;26.114;2022-10-16T07:11:20;101817.34;;;8.86;82.04
63190;BME280;49286;44.460;26.114;2022-10-16T07:13:47;101782.88;;;9.01;81.20
63190;BME280;49286;44.460;26.114;2022-10-16T07:16:15;101681.88;;;8.45;80.49
63190;BME280;49286;44.460;26.114;2022-10-16T07:18:42;101833.28;;;9.24;80.68
63190;BME280;49286;44.460;26.114;2022-10-16T07:21:18;101815.41;;;9.09;81.54
63190;BME280;49286;44.460;26.114;2022-10-16T07:23:44;101695.56;;;8.38;80.95
63190;BME280;49286;44.460;26.114;2022-10-16T07:26:11;101702.59;;;8.70;79.49
63190;BME280;49286;44.460;26.114;2022-10-16T07:28:37;101722.38;;;8.90;78.88
63190;BME280;49286;44.460;26.114;2022-10-16T07:31:05;101830.13;;;9.67;78.80
63190;BME280;49286;44.460;26.114;2022-10-16T07:33:32;101773.28;;;9.33;76.30
63190;BME280;49286;44.460;26.114;2022-10-16T07:35:58;101825.25;;;9.83;75.45
63190;BME280;49286;44.460;26.114;2022-10-16T07:38:23;101828.50;;;9.72;75.45
63190;BME280;49286;44.460;26.114;2022-10-16T07:40:59;101834.88;;;9.82;75.61
63190;BME280;49286;44.460;26.114;2022-10-16T07:43:25;101793.91;;;9.87;75.10
63190;BME280;49286;44.460;26.114;2022-10-16T07:45:51;101792.28;;;9.92;74.61
63190;BME280;49286;44.460;26.114;2022-10-16T07:48:17;101803.28;;;10.12;74.03
63190;BME280;49286;44.460;26.114;2022-10-16T07:50:43;101711.56;;;9.43;73.95
63190;BME280;49286;44.460;26.114;2022-10-16T07:53:10;101796.03;;;11.19;82.87
63190;BME280;49286;44.460;26.114;2022-10-16T07:55:36;101783.56;;;12.64;85.18
63190;BME280;49286;44.460;26.114;2022-10-16T07:58:01;101721.34;;;10.62;72.53
63190;BME280;49286;44.460;26.114;2022-10-16T08:00:27;101686.50;;;11.15;71.57
63190;BME280;49286;44.460;26.114;2022-10-16T08:02:52;101659.94;;;10.99;74.45
63190;BME280;49286;44.460;26.114;2022-10-16T08:05:18;101805.81;;;10.84;71.35
63190;BME280;49286;44.460;26.114;2022-10-16T08:07:48;101815.47;;;10.86;72.69
63190;BME280;49286;44.460;26.114;2022-10-16T08:10:18;101693.09;;;10.11;71.61
63190;BME280;49286;44.460;26.114;2022-10-16T08:12:44;101794.56;;;10.91;70.96
63190;BME280;49286;44.460;26.114;2022-10-16T08:15:10;101817.25;;;11.30;70.00
63190;BME280;49286;44.460;26.114;2022-10-16T08:17:35;101682.41;;;10.40;69.65
63190;BME280;49286;44.460;26.114;2022-10-16T08:20:01;101703.50;;;10.46;69.84
63190;BME280;49286;44.460;26.114;2022-10-16T08:22:27;101822.28;;;11.17;69.73
63190;BME280;49286;44.460;26.114;2022-10-16T08:24:52;101687.50;;;10.33;69.46
63190;BME280;49286;44.460;26.114;2022-10-16T08:27:18;101823.19;;;11.19;68.75
63190;BME280;49286;44.460;26.114;2022-10-16T08:29:43;101680.97;;;10.55;69.01
63190;BME280;49286;44.460;26.114;2022-10-16T08:32:09;101789.25;;;11.30;67.87
63190;BME280;49286;44.460;26.114;2022-10-16T08:34:34;101831.78;;;11.56;67.17
63190;BME280;49286;44.460;26.114;2022-10-16T08:36:59;101841.41;;;11.54;67.39
63190;BME280;49286;44.460;26.114;2022-10-16T08:39:25;101837.22;;;11.66;67.58
63190;BME280;49286;44.460;26.114;2022-10-16T08:47:01;101839.53;;;11.96;66.46
63190;BME280;49286;44.460;26.114;2022-10-16T08:49:30;101719.63;;;11.55;66.46
63190;BME280;49286;44.460;26.114;2022-10-16T08:51:56;101837.41;;;12.25;65.57
63190;BME280;49286;44.460;26.114;2022-10-16T08:54:29;101841.03;;;12.32;65.03
63190;BME280;49286;44.460;26.114;2022-10-16T08:57:04;101756.91;;;11.83;63.64
63190;BME280;49286;44.460;26.114;2022-10-16T08:59:32;101824.06;;;12.13;64.01
63190;BME280;49286;44.460;26.114;2022-10-16T09:01:58;101672.94;;;11.40;63.80
63190;BME280;49286;44.460;26.114;2022-10-16T09:07:32;101729.91;;;11.92;63.95
63190;BME280;49286;44.460;26.114;2022-10-16T09:12:54;101671.78;;;11.78;63.51
63190;BME280;49286;44.460;26.114;2022-10-16T09:18:12;101825.06;;;12.82;62.16
63190;BME280;49286;44.460;26.114;2022-10-16T09:20:51;101826.91;;;12.87;63.21
63190;BME280;49286;44.460;26.114;2022-10-16T09:23:18;101828.47;;;12.72;63.71
63190;BME280;49286;44.460;26.114;2022-10-16T09:25:48;101717.41;;;12.38;63.79
63190;BME280;49286;44.460;26.114;2022-10-16T09:28:16;101738.59;;;12.50;63.63
63190;BME280;49286;44.460;26.114;2022-10-16T09:30:42;101795.31;;;12.89;62.74
63190;BME280;49286;44.460;26.114;2022-10-16T09:33:09;101713.97;;;12.45;63.08
63190;BME280;49286;44.460;26.114;2022-10-16T09:35:39;101809.91;;;13.31;62.39
63190;BME280;49286;44.460;26.114;2022-10-16T09:38:06;101820.47;;;13.34;62.92
63190;BME280;49286;44.460;26.114;2022-10-16T09:40:37;101692.19;;;12.55;62.81
63190;BME280;49286;44.460;26.114;2022-10-16T09:43:46;101815.09;;;13.26;63.65
63190;BME280;49286;44.460;26.114;2022-10-16T09:46:32;101809.91;;;13.31;62.94
63190;BME280;49286;44.460;26.114;2022-10-16T09:49:01;101684.28;;;12.57;64.10
63190;BME280;49286;44.460;26.114;2022-10-16T09:51:33;101781.78;;;13.32;62.51
63190;BME280;49286;44.460;26.114;2022-10-16T09:54:20;101796.06;;;13.49;63.83
63190;BME280;49286;44.460;26.114;2022-10-16T09:56:47;101696.84;;;12.79;64.52
63190;BME280;49286;44.460;26.114;2022-10-16T09:59:22;101791.34;;;13.25;65.07
63190;BME280;49286;44.460;26.114;2022-10-16T10:01:55;101799.56;;;13.49;64.14
63190;BME280;49286;44.460;26.114;2022-10-16T10:04:23;101768.72;;;13.39;64.22
63190;BME280;49286;44.460;26.114;2022-10-16T10:06:55;101770.78;;;13.72;63.10
63190;BME280;49286;44.460;26.114;2022-10-16T10:11:56;101788.56;;;13.97;61.60
63190;BME280;49286;44.460;26.114;2022-10-16T10:14:30;101790.06;;;13.68;62.42
63190;BME280;49286;44.460;26.114;2022-10-16T10:20:46;101778.00;;;13.97;62.21
63190;BME280;49286;44.460;26.114;2022-10-16T10:22:47;101752.47;;;13.94;60.89
63190;BME280;49286;44.460;26.114;2022-10-16T10:35:43;101776.84;;;14.89;59.81
63190;BME280;49286;44.460;26.114;2022-10-16T10:41:10;101776.84;;;14.88;59.35
63190;BME280;49286;44.460;26.114;2022-10-16T10:46:32;101745.00;;;14.57;58.98
63190;BME280;49286;44.460;26.114;2022-10-16T10:54:27;101737.28;;;15.22;57.28
63190;BME280;49286;44.460;26.114;2022-10-16T11:00:06;101746.16;;;15.65;56.87
63190;BME280;49286;44.460;26.114;2022-10-16T11:05:41;101757.63;;;15.55;57.77
63190;BME280;49286;44.460;26.114;2022-10-16T11:08:50;101746.13;;;15.34;57.58
63190;BME280;49286;44.460;26.114;2022-10-16T11:16:51;101753.19;;;15.34;57.01
63190;BME280;49286;44.460;26.114;2022-10-16T11:19:11;101732.91;;;15.39;56.90
63190;BME280;49286;44.460;26.114;2022-10-16T11:21:50;101726.75;;;15.46;57.29
63190;BME280;49286;44.460;26.114;2022-10-16T11:24:35;101693.19;;;14.99;56.98
63190;BME280;49286;44.460;26.114;2022-10-16T11:27:06;101627.91;;;14.63;57.28
63190;BME280;49286;44.460;26.114;2022-10-16T11:29:32;101741.75;;;15.55;56.02
63190;BME280;49286;44.460;26.114;2022-10-16T11:32:18;101637.63;;;14.79;56.42
63190;BME280;49286;44.460;26.114;2022-10-16T11:34:48;101632.38;;;14.91;55.46
63190;BME280;49286;44.460;26.114;2022-10-16T11:37:24;101633.16;;;14.58;56.83
63190;BME280;49286;44.460;26.114;2022-10-16T11:39:54;101739.09;;;15.36;56.55
63190;BME280;49286;44.460;26.114;2022-10-16T11:42:31;101635.00;;;14.84;55.90
63190;BME280;49286;44.460;26.114;2022-10-16T11:45:39;101731.22;;;15.76;56.67
63190;BME280;49286;44.460;26.114;2022-10-16T11:48:20;101711.78;;;15.73;56.05
63190;BME280;49286;44.460;26.114;2022-10-16T11:50:56;101738.22;;;15.47;55.57
63190;BME280;49286;44.460;26.114;2022-10-16T11:53:35;101732.94;;;15.51;55.73
63190;BME280;49286;44.460;26.114;2022-10-16T11:56:05;101615.63;;;14.83;55.05
63190;BME280;49286;44.460;26.114;2022-10-16T12:01:50;101744.41;;;15.96;54.27
63190;BME280;49286;44.460;26.114;2022-10-16T12:07:04;101623.53;;;14.78;55.53
63190;BME280;49286;44.460;26.114;2022-10-16T12:09:34;101740.84;;;15.39;55.92
63190;BME280;49286;44.460;26.114;2022-10-16T12:12:02;101739.97;;;15.37;54.77
63190;BME280;49286;44.460;26.114;2022-10-16T12:17:24;101642.09;;;15.18;53.98
63190;BME280;49286;44.460;26.114;2022-10-16T12:22:41;101694.09;;;15.06;54.65
63190;BME280;49286;44.460;26.114;2022-10-16T12:25:30;101704.72;;;15.36;54.16
63190;BME280;49286;44.460;26.114;2022-10-16T12:28:17;101726.78;;;15.77;53.89
63190;BME280;49286;44.460;26.114;2022-10-16T12:30:52;101708.25;;;15.68;53.79
63190;BME280;49286;44.460;26.114;2022-10-16T12:33:25;101737.38;;;15.85;53.58
63190;BME280;49286;44.460;26.114;2022-10-16T12:35:52;101637.69;;;15.25;53.53
63190;BME280;49286;44.460;26.114;2022-10-16T12:38:37;101702.94;;;15.49;53.26
63190;BME280;49286;44.460;26.114;2022-10-16T12:41:04;101732.97;;;15.83;54.67
63190;BME280;49286;44.460;26.114;2022-10-16T12:43:43;101752.34;;;16.01;53.91
63190;BME280;49286;44.460;26.114;2022-10-16T12:48:36;101531.94;;;14.64;53.57
63190;BME280;49286;44.460;26.114;2022-10-16T13:16:26;101755.00;;;15.92;51.33
63190;BME280;49286;44.460;26.114;2022-10-16T13:27:28;101628.88;;;15.51;50.84
63190;BME280;49286;44.460;26.114;2022-10-16T13:30:26;101749.72;;;16.06;51.17
63190;BME280;49286;44.460;26.114;2022-10-16T13:35:50;101751.50;;;15.83;51.58
63190;BME280;49286;44.460;26.114;2022-10-16T13:38:21;101640.31;;;15.19;51.02
63190;BME280;49286;44.460;26.114;2022-10-16T13:41:00;101757.66;;;16.07;50.63
63190;BME280;49286;44.460;26.114;2022-10-16T13:43:50;101723.25;;;15.92;50.52
63190;BME280;49286;44.460;26.114;2022-10-16T13:46:24;101743.50;;;16.13;50.17
63190;BME280;49286;44.460;26.114;2022-10-16T13:49:04;101736.47;;;16.16;50.32
63190;BME280;49286;44.460;26.114;2022-10-16T13:51:30;101643.84;;;15.56;50.93
63190;BME280;49286;44.460;26.114;2022-10-16T13:53:57;101770.91;;;15.90;50.91
63190;BME280;49286;44.460;26.114;2022-10-16T13:56:25;101768.25;;;16.02;49.79
63190;BME280;49286;44.460;26.114;2022-10-16T13:59:03;101512.47;;;14.34;49.79
63190;BME280;49286;44.460;26.114;2022-10-16T14:01:41;101774.44;;;15.77;50.77
63190;BME280;49286;44.460;26.114;2022-10-16T14:04:10;101745.34;;;15.83;49.53
63190;BME280;49286;44.460;26.114;2022-10-16T14:06:41;101772.66;;;16.17;49.61
63190;BME280;49286;44.460;26.114;2022-10-16T14:09:11;101751.50;;;15.90;49.91
63190;BME280;49286;44.460;26.114;2022-10-16T14:11:59;101769.13;;;16.03;50.11
63190;BME280;49286;44.460;26.114;2022-10-16T14:14:34;101765.63;;;16.04;50.01
63190;BME280;49286;44.460;26.114;2022-10-16T14:17:02;101735.59;;;15.73;50.02
63190;BME280;49286;44.460;26.114;2022-10-16T14:19:29;101691.47;;;15.15;50.78
63190;BME280;49286;44.460;26.114;2022-10-16T14:21:56;101671.13;;;14.89;51.24
63190;BME280;49286;44.460;26.114;2022-10-16T14:24:33;101669.38;;;14.94;50.49
63190;BME280;49286;44.460;26.114;2022-10-16T14:26:59;101783.28;;;15.76;50.19
63190;BME280;49286;44.460;26.114;2022-10-16T14:29:27;101799.09;;;15.65;50.57
63190;BME280;49286;44.460;26.114;2022-10-16T14:40:03;101784.06;;;15.56;50.39
63190;BME280;49286;44.460;26.114;2022-10-16T14:42:28;101574.09;;;14.44;49.95
63190;BME280;49286;44.460;26.114;2022-10-16T14:44:56;101788.50;;;15.56;50.31
63190;BME280;49286;44.460;26.114;2022-10-16T14:47:23;101706.41;;;15.02;50.34
63190;BME280;49286;44.460;26.114;2022-10-16T14:49:52;101801.72;;;15.51;50.56
63190;BME280;49286;44.460;26.114;2022-10-16T14:52:20;101673.72;;;14.74;50.85
63190;BME280;49286;44.460;26.114;2022-10-16T14:54:52;101787.59;;;15.46;50.75
63190;BME280;49286;44.460;26.114;2022-10-16T14:57:23;101802.59;;;15.53;51.24
63190;BME280;49286;44.460;26.114;2022-10-16T14:59:52;101811.38;;;15.34;51.82
63190;BME280;49286;44.460;26.114;2022-10-16T15:02:23;101816.66;;;15.34;52.03
63190;BME280;49286;44.460;26.114;2022-10-16T15:04:50;101663.09;;;14.55;52.20
63190;BME280;49286;44.460;26.114;2022-10-16T15:07:16;101693.94;;;14.64;52.25
63190;BME280;49286;44.460;26.114;2022-10-16T15:09:41;101697.38;;;14.51;52.68